Time;durP1;ratioP1;P1;durP2;ratioP2;P2;SDS_P1;SDS_P2;PMS_P1;PMS_P2;Temp;Humidity;BMP_temperature;BMP_pressure;BME280_temperature;BME280_humidity;BME280_pressure;Samples;Min_cycle;Max_cycle;Signal;HPM_P1;HPM_P2
2023/09/26 00:01:42;;;;;;;6.78;2.17;;;16.50;99.90;;;15.83;100.00;101495.31;4186725;28;20025;-74
2023/09/26 00:03:43;;;;;;;6.18;2.10;;;16.50;99.90;;;15.84;100.00;101499.63;4186555;28;20029;-74
2023/09/26 00:05:44;;;;;;;3.38;1.40;;;16.40;99.90;;;15.79;100.00;101494.00;4186348;28;20036;-74
2023/09/26 00:07:45;;;;;;;3.13;1.60;;;16.40;99.90;;;15.76;100.00;101486.34;4186815;28;20029;-74
2023/09/26 00:09:46;;;;;;;3.83;1.35;;;16.40;99.90;;;15.73;100.00;101481.38;4186470;28;20025;-74
2023/09/26 00:11:47;;;;;;;7.90;1.95;;;16.40;99.90;;;15.70;100.00;101473.75;4186381;28;20032;-74
2023/09/26 00:13:49;;;;;;;6.55;1.65;;;16.40;99.90;;;15.70;100.00;101468.41;4197087;28;20511;-74
2023/09/26 00:15:50;;;;;;;5.80;1.90;;;16.40;99.90;;;15.68;100.00;101471.22;4186228;28;20029;-74
2023/09/26 00:17:51;;;;;;;3.50;1.83;;;16.30;99.90;;;15.68;100.00;101473.09;4186329;28;20433;-74
2023/09/26 00:19:52;;;;;;;6.68;2.08;;;16.30;99.90;;;15.65;100.00;101463.59;4184960;28;20155;-74
2023/09/26 00:21:53;;;;;;;5.18;2.10;;;16.30;99.90;;;15.65;100.00;101468.13;4186256;28;20084;-74
2023/09/26 00:23:54;;;;;;;3.70;2.03;;;16.20;99.90;;;15.61;100.00;101456.97;4186086;28;20107;-74
2023/09/26 00:25:55;;;;;;;6.53;2.63;;;16.30;99.90;;;15.59;100.00;101464.28;4186237;28;20033;-74
2023/09/26 00:27:56;;;;;;;7.15;2.28;;;16.20;99.90;;;15.52;100.00;101473.97;4193390;28;20036;-74
2023/09/26 00:29:57;;;;;;;4.45;1.55;;;16.20;99.90;;;15.47;100.00;101477.13;4186463;28;20027;-74
2023/09/26 00:31:59;;;;;;;6.00;1.75;;;16.10;99.90;;;15.46;100.00;101488.72;4186090;28;20060;-74
2023/09/26 00:33:59;;;;;;;2.45;1.65;;;16.10;99.90;;;15.43;100.00;101483.75;4186253;28;20071;-74
2023/09/26 00:36:08;;;;;;;3.30;1.48;;;16.10;99.90;;;15.40;100.00;101483.25;4188956;28;20480;-74
2023/09/26 00:38:09;;;;;;;5.93;1.92;;;16.00;99.90;;;15.38;100.00;101474.63;4197213;28;20115;-74
2023/09/26 00:40:15;;;;;;;7.35;2.72;;;16.00;99.90;;;15.34;100.00;101482.09;4184638;28;20492;-74
2023/09/26 00:42:16;;;;;;;4.97;2.20;;;16.00;99.90;;;15.31;100.00;101485.09;4185265;28;20496;-74
2023/09/26 00:44:17;;;;;;;4.28;2.13;;;16.00;99.90;;;15.31;100.00;101485.09;4193163;28;20032;-74
2023/09/26 00:46:19;;;;;;;7.30;2.00;;;16.00;99.90;;;15.29;100.00;101487.09;4185844;28;20025;-74
2023/09/26 00:48:23;;;;;;;5.53;2.47;;;15.90;99.90;;;15.30;100.00;101478.13;4185601;28;20499;-74
2023/09/26 00:50:24;;;;;;;6.28;2.20;;;16.00;99.90;;;15.29;100.00;101468.47;4191382;28;20451;-74
2023/09/26 00:52:25;;;;;;;6.70;2.85;;;15.90;99.90;;;15.32;100.00;101468.13;4185798;28;20037;-74
2023/09/26 00:54:27;;;;;;;10.25;2.97;;;16.00;99.90;;;15.34;100.00;101468.81;4185750;28;20453;-74
2023/09/26 00:56:28;;;;;;;6.00;2.40;;;16.00;99.90;;;15.36;100.00;101469.47;4200298;28;20025;-74
2023/09/26 00:58:32;;;;;;;4.35;2.35;;;16.00;99.90;;;15.37;100.00;101460.50;4185513;28;20025;-74
2023/09/26 01:00:33;;;;;;;;;;;16.00;99.90;;;15.36;100.00;101468.63;4194127;28;20484;-74
2023/09/26 01:02:34;;;;;;;5.43;2.50;;;16.00;99.90;;;15.37;100.00;101460.50;4184541;28;19919;-74
2023/09/26 01:04:36;;;;;;;3.83;2.20;;;16.00;99.90;;;15.35;100.00;101449.19;4200413;28;20591;-74
2023/09/26 01:06:37;;;;;;;3.60;2.20;;;16.00;99.90;;;15.37;100.00;101457.84;4185566;28;20028;-74
2023/09/26 01:08:37;;;;;;;4.05;2.53;;;16.00;99.90;;;15.36;100.00;101463.31;4185698;28;20026;-74
2023/09/26 01:10:39;;;;;;;5.45;2.47;;;16.00;99.90;;;15.38;100.00;101464.81;4184373;28;20029;-74
2023/09/26 01:12:40;;;;;;;3.95;2.28;;;16.00;99.90;;;15.39;100.00;101462.97;4184160;28;20099;-74
2023/09/26 01:14:41;;;;;;;5.30;2.00;;;16.00;99.90;;;15.41;100.00;101472.44;4189822;28;20032;-74
2023/09/26 01:16:42;;;;;;;5.40;2.45;;;16.00;99.90;;;15.43;100.00;101470.47;4185483;28;20032;-74
2023/09/26 01:18:44;;;;;;;6.70;2.70;;;16.00;99.90;;;15.47;100.00;101476.31;4196494;28;20437;-74
2023/09/26 01:20:46;;;;;;;5.50;2.00;;;16.10;99.90;;;15.47;100.00;101473.66;4195628;28;20028;-74
2023/09/26 01:22:48;;;;;;;5.22;2.53;;;16.10;99.90;;;15.52;100.00;101462.50;4183803;28;20128;-74
2023/09/26 01:24:49;;;;;;;7.32;2.85;;;16.10;99.90;;;15.52;100.00;101451.84;4200705;28;20028;-74
2023/09/26 01:26:50;;;;;;;9.50;3.08;;;16.10;99.90;;;15.55;100.00;101451.50;4185275;28;20055;-74
2023/09/26 01:28:52;;;;;;;6.80;2.70;;;16.10;99.90;;;15.52;100.00;101447.38;4199256;28;20028;-74
2023/09/26 01:30:53;;;;;;;7.05;2.58;;;16.10;99.90;;;15.50;100.00;101449.38;4185392;28;20036;-74
2023/09/26 01:32:54;;;;;;;4.20;2.50;;;16.10;99.90;;;15.50;100.00;101455.50;4200544;28;20507;-74
2023/09/26 01:34:55;;;;;;;11.13;3.33;;;16.20;99.90;;;15.47;100.00;101449.72;4187108;28;20037;-74
2023/09/26 01:36:56;;;;;;;6.53;2.83;;;16.10;99.90;;;15.43;100.00;101457.16;4185425;28;20064;-74
2023/09/26 01:38:57;;;;;;;10.50;2.70;;;16.10;99.90;;;15.42;100.00;101447.53;4185040;28;20492;-74
2023/09/26 01:40:57;;;;;;;6.70;2.90;;;16.00;99.90;;;15.39;100.00;101442.53;4192558;28;20091;-74
2023/09/26 01:42:58;;;;;;;5.82;2.35;;;16.10;99.90;;;15.40;100.00;101441.56;4185073;28;20130;-74
2023/09/26 01:44:59;;;;;;;6.00;2.30;;;16.00;99.90;;;15.37;100.00;101433.91;4199545;28;20442;-74
2023/09/26 01:47:00;;;;;;;5.47;2.50;;;16.10;99.90;;;15.37;100.00;101444.56;4195828;28;20037;-74
2023/09/26 01:49:01;;;;;;;4.15;2.45;;;16.00;99.90;;;15.39;100.00;101449.69;4184027;28;20021;-74
2023/09/26 01:51:05;;;;;;;5.38;2.30;;;16.00;99.90;;;15.37;100.00;101446.38;4196180;28;20027;-74
2023/09/26 01:53:08;;;;;;;5.22;2.13;;;16.00;99.90;;;15.35;100.00;101443.88;4185605;28;20447;-74
2023/09/26 01:55:19;;;;;;;7.28;2.70;;;16.00;99.90;;;15.36;100.00;101434.91;4183848;28;20481;-74
2023/09/26 01:57:20;;;;;;;11.20;3.45;;;16.00;99.90;;;15.37;100.00;101431.25;4185196;28;20033;-74
2023/09/26 01:59:21;;;;;;;4.45;2.17;;;16.00;99.90;;;15.34;100.00;101430.75;4184758;28;20047;-74
2023/09/26 02:01:22;;;;;;;15.05;3.70;;;16.00;99.90;;;15.35;100.00;101427.91;4184876;28;20100;-74
2023/09/26 02:03:23;;;;;;;10.98;2.60;;;16.00;99.90;;;15.35;100.00;101435.09;4185042;28;20033;-74
2023/09/26 02:05:24;;;;;;;6.28;2.75;;;16.00;99.90;;;15.32;100.00;101430.13;4192679;28;20024;-74
2023/09/26 02:07:25;;;;;;;3.90;2.20;;;16.00;99.90;;;15.28;100.00;101429.63;4183558;28;20133;-74
2023/09/26 02:09:25;;;;;;;5.80;2.75;;;15.90;99.90;;;15.27;100.00;101430.59;4185611;28;20044;-74
2023/09/26 02:11:26;;;;;;;5.85;2.90;;;15.90;99.90;;;15.28;100.00;101434.94;4189553;28;20028;-74
2023/09/26 02:13:27;;;;;;;6.28;2.10;;;15.90;99.90;;;15.26;100.00;101436.91;4184795;28;20021;-74
2023/09/26 02:15:28;;;;;;;7.13;2.15;;;15.90;99.90;;;15.24;100.00;101428.28;4184669;28;20035;-74
2023/09/26 02:17:29;;;;;;;6.50;1.88;;;15.90;99.90;;;15.22;100.00;101424.97;4198806;28;20028;-74
2023/09/26 02:19:30;;;;;;;5.20;2.70;;;15.90;99.90;;;15.22;100.00;101424.16;4184932;28;20029;-74
2023/09/26 02:21:31;;;;;;;6.50;2.38;;;15.80;99.90;;;15.22;100.00;101421.50;4192212;28;20032;-74
2023/09/26 02:23:32;;;;;;;3.92;2.40;;;15.80;99.90;;;15.19;100.00;101409.38;4184898;28;20032;-74
2023/09/26 02:25:33;;;;;;;3.63;1.92;;;15.80;99.90;;;15.18;100.00;101418.34;4198564;28;20028;-74
2023/09/26 02:27:34;;;;;;;6.60;3.00;;;15.70;99.90;;;15.15;100.00;101408.03;4184801;28;20033;-74
2023/09/26 02:29:35;;;;;;;4.63;2.25;;;15.70;99.90;;;15.11;100.00;101409.41;4191550;28;20029;-74
2023/09/26 02:31:35;;;;;;;7.70;2.85;;;15.70;99.90;;;15.09;100.00;101413.19;4189217;28;20025;-74
2023/09/26 02:33:36;;;;;;;8.07;2.80;;;15.70;99.90;;;15.06;100.00;101406.41;4184938;28;20044;-74
2023/09/26 02:35:37;;;;;;;5.20;2.58;;;15.70;99.90;;;15.02;100.00;101405.09;4189453;28;20025;-74
2023/09/26 02:37:39;;;;;;;5.38;2.30;;;15.60;99.90;;;14.98;100.00;101405.59;4187952;28;20163;-74
2023/09/26 02:39:39;;;;;;;5.68;2.42;;;15.60;99.90;;;14.95;100.00;101396.13;4186400;28;20439;-74
2023/09/26 02:41:40;;;;;;;3.60;2.17;;;15.50;99.90;;;14.92;100.00;101394.66;4187730;28;20032;-74
2023/09/26 02:43:41;;;;;;;3.38;2.22;;;15.50;99.90;;;14.90;100.00;101393.16;4191562;28;20040;-74
2023/09/26 02:45:42;;;;;;;7.28;2.90;;;15.50;99.90;;;14.85;100.00;101391.00;4197024;28;20484;-74
2023/09/26 02:47:44;;;;;;;8.25;2.50;;;15.50;99.90;;;14.83;100.00;101382.38;4196835;28;20028;-74
2023/09/26 02:49:45;;;;;;;4.60;2.17;;;15.40;99.90;;;14.80;100.00;101382.69;4187748;28;20484;-74
2023/09/26 02:51:46;;;;;;;7.88;2.60;;;15.40;99.90;;;14.79;100.00;101383.69;4190522;28;20025;-74
2023/09/26 02:53:47;;;;;;;9.13;2.60;;;15.40;99.90;;;14.78;100.00;101381.22;4186497;28;20029;-74
2023/09/26 02:55:47;;;;;;;6.70;3.50;;;15.40;99.90;;;14.71;100.00;101374.91;4192986;28;20017;-74
2023/09/26 02:57:48;;;;;;;6.05;2.60;;;15.40;99.90;;;14.74;100.00;101386.03;4199819;28;20103;-74
2023/09/26 02:59:49;;;;;;;8.98;2.97;;;15.40;99.90;;;14.69;100.00;101382.22;4187389;28;20443;-74
2023/09/26 03:01:51;;;;;;;6.43;2.30;;;15.30;99.90;;;14.68;100.00;101372.59;4193189;28;20044;-74
2023/09/26 03:03:53;;;;;;;4.65;2.70;;;15.30;99.90;;;14.68;100.00;101377.91;4186305;28;20027;-74
2023/09/26 03:05:55;;;;;;;5.53;2.80;;;15.30;99.90;;;14.68;100.00;101359.31;4189993;28;20021;-74
2023/09/26 03:07:56;;;;;;;8.32;2.80;;;15.30;99.90;;;14.69;100.00;101363.63;4189572;28;20099;-74
2023/09/26 03:09:56;;;;;;;6.90;2.80;;;15.30;99.90;;;14.67;100.00;101358.47;4187457;28;20017;-74
2023/09/26 03:11:57;;;;;;;5.13;2.78;;;15.30;99.90;;;14.68;100.00;101372.59;4196009;28;20078;-74
2023/09/26 03:13:58;;;;;;;9.57;2.95;;;15.30;99.90;;;14.64;100.00;101372.09;4200019;28;20030;-74
2023/09/26 03:16:00;;;;;;;7.45;2.85;;;15.30;99.90;;;14.61;100.00;101372.41;4187397;28;20024;-74
2023/09/26 03:18:01;;;;;;;4.65;2.75;;;15.30;99.90;;;14.58;100.00;101364.78;4185930;28;20064;-74
2023/09/26 03:20:04;;;;;;;7.28;2.53;;;15.20;99.90;;;14.57;100.00;101359.66;4195920;28;20025;-74
2023/09/26 03:22:04;;;;;;;7.18;2.83;;;15.20;99.90;;;14.56;100.00;101360.63;4185992;28;20025;-74
2023/09/26 03:24:06;;;;;;;7.18;2.92;;;15.20;99.90;;;14.57;100.00;101372.94;4190459;28;20110;-74
2023/09/26 03:26:11;;;;;;;5.50;2.83;;;15.20;99.90;;;14.57;100.00;101360.50;4195713;28;20083;-74
2023/09/26 03:28:12;;;;;;;7.55;2.95;;;15.20;99.90;;;14.60;100.00;101354.00;4185844;28;20029;-74
2023/09/26 03:30:16;;;;;;;4.45;2.80;;;15.20;99.90;;;14.63;100.00;101365.13;4199407;28;20039;-74
2023/09/26 03:32:18;;;;;;;4.47;2.40;;;15.20;99.90;;;14.62;100.00;101358.16;4198581;28;20059;-74
2023/09/26 03:34:18;;;;;;;5.65;2.50;;;15.20;99.90;;;14.63;100.00;101356.34;4189685;28;20032;-74
2023/09/26 03:36:19;;;;;;;6.10;2.83;;;15.20;99.90;;;14.61;100.00;101355.66;4192757;28;20029;-74
2023/09/26 03:38:21;;;;;;;7.85;3.08;;;15.30;99.90;;;14.62;100.00;101362.63;4199201;28;20029;-74
2023/09/26 03:40:21;;;;;;;5.97;3.08;;;15.30;99.90;;;14.61;100.00;101360.97;4185967;28;20051;-74
2023/09/26 03:42:22;;;;;;;6.47;2.90;;;15.20;99.90;;;14.60;100.00;101357.50;4186357;28;20025;-74
2023/09/26 03:44:23;;;;;;;6.55;2.85;;;15.20;99.90;;;14.56;100.00;101347.38;4205334;28;20103;-74
2023/09/26 03:46:24;;;;;;;6.85;2.60;;;15.20;99.90;;;14.58;100.00;101361.28;4189148;28;20033;-74
2023/09/26 03:48:25;;;;;;;4.90;2.40;;;15.20;99.90;;;14.58;100.00;101355.97;4185289;28;20134;-74
2023/09/26 03:50:26;;;;;;;7.03;2.75;;;15.20;99.90;;;14.55;100.00;101354.50;4186945;28;20028;-74
2023/09/26 03:52:28;;;;;;;4.85;2.60;;;15.20;99.90;;;14.60;100.00;101356.66;4194728;28;20024;-74
2023/09/26 03:54:30;;;;;;;3.50;2.30;;;15.20;99.90;;;14.62;100.00;101355.50;4190473;28;20364;-74
2023/09/26 03:56:31;;;;;;;5.25;2.45;;;15.20;99.90;;;14.62;100.00;101349.34;4187398;28;20025;-74
2023/09/26 03:58:33;;;;;;;6.75;2.58;;;15.20;99.90;;;14.63;100.00;101343.06;4186476;28;20029;-74
2023/09/26 04:00:34;;;;;;;4.32;3.08;;;15.20;99.90;;;14.62;100.00;101344.88;4186501;28;20025;-74
2023/09/26 04:02:35;;;;;;;5.85;2.42;;;15.20;99.90;;;14.63;100.00;101337.75;4186537;28;20112;-74
2023/09/26 04:04:36;;;;;;;6.20;2.88;;;15.20;99.90;;;14.64;100.00;101342.03;4189343;28;20028;-74
2023/09/26 04:06:38;;;;;;;5.18;2.83;;;15.20;99.90;;;14.64;100.00;101342.03;4190088;28;20028;-74
2023/09/26 04:08:39;;;;;;;10.75;3.17;;;15.30;99.90;;;14.64;100.00;101334.06;4187909;28;20048;-74
2023/09/26 04:10:40;;;;;;;5.20;2.97;;;15.30;99.90;;;14.64;100.00;101323.44;4187078;28;20021;-74
2023/09/26 04:12:41;;;;;;;3.55;2.90;;;15.30;99.90;;;14.68;100.00;101328.28;4200288;28;20060;-74
2023/09/26 04:14:42;;;;;;;4.63;2.67;;;15.30;99.90;;;14.67;100.00;101334.56;4186604;28;20021;-74
2023/09/26 04:16:43;;;;;;;8.82;4.18;;;15.30;99.90;;;14.66;100.00;101342.72;4186366;28;20040;-74
2023/09/26 04:18:47;;;;;;;7.00;3.28;;;15.30;99.90;;;14.64;100.00;101340.22;4186375;28;20381;-74
2023/09/26 04:20:49;;;;;;;;;;;15.20;99.90;;;14.55;100.00;101330.59;4186690;28;20029;-74
2023/09/26 04:22:50;;;;;;;5.63;3.03;;;15.20;99.90;;;14.57;100.00;101314.53;4190052;28;19908;-74
2023/09/26 04:24:51;;;;;;;6.65;3.45;;;15.20;99.90;;;14.60;100.00;101311.53;4191618;28;20020;-74
2023/09/26 04:26:52;;;;;;;6.85;3.10;;;15.20;99.90;;;14.60;100.00;101309.72;4191600;28;20036;-74
2023/09/26 04:28:53;;;;;;;4.60;2.72;;;15.20;99.90;;;14.57;100.00;101311.88;4185782;28;20036;-74
2023/09/26 04:30:53;;;;;;;5.00;2.65;;;15.20;99.90;;;14.56;100.00;101305.72;4189291;28;20029;-74
2023/09/26 04:32:54;;;;;;;5.03;2.78;;;15.20;99.90;;;14.53;100.00;101300.75;4186336;28;20024;-74
2023/09/26 04:34:55;;;;;;;4.68;2.60;;;15.20;99.90;;;14.50;100.00;101290.47;4195623;28;20025;-74
2023/09/26 04:36:56;;;;;;;4.97;2.80;;;15.10;99.90;;;14.47;100.00;101282.00;4188370;28;20511;-74
2023/09/26 04:38:57;;;;;;;3.85;2.58;;;15.10;99.90;;;14.45;100.00;101276.88;4185842;28;20040;-74
2023/09/26 04:41:04;;;;;;;5.43;2.90;;;15.10;99.90;;;14.42;100.00;101281.69;4186004;28;20513;-74
2023/09/26 04:43:05;;;;;;;7.25;2.90;;;15.00;99.90;;;14.33;100.00;101294.97;4184706;28;20024;-74
2023/09/26 04:45:07;;;;;;;7.88;3.05;;;15.00;99.90;;;14.30;100.00;101292.63;4198784;28;20040;-74
2023/09/26 04:47:08;;;;;;;7.15;3.00;;;15.00;99.90;;;14.26;100.00;101293.09;4185989;28;20107;-74
2023/09/26 04:49:08;;;;;;;4.80;2.55;;;14.90;99.90;;;14.24;100.00;101293.28;4186045;28;20074;-74
2023/09/26 04:51:17;;;;;;;5.72;2.67;;;14.90;99.90;;;14.24;100.00;101287.97;4190342;28;20032;-74
2023/09/26 04:53:18;;;;;;;5.07;2.65;;;14.90;99.90;;;14.21;100.00;101279.50;4184793;28;20032;-74
2023/09/26 04:55:19;;;;;;;5.15;2.83;;;14.80;99.90;;;14.22;100.00;101284.63;4189572;28;20564;-74
2023/09/26 04:57:19;;;;;;;4.68;2.60;;;14.90;99.90;;;14.19;100.00;101287.63;4193760;28;20040;-74
2023/09/26 04:59:20;;;;;;;5.95;3.22;;;14.80;99.90;;;14.17;100.00;101294.09;4184902;28;20382;-74
2023/09/26 05:01:25;;;;;;;3.00;2.53;;;14.80;99.90;;;14.14;100.00;101299.72;4185549;28;20381;-74
2023/09/26 05:03:27;;;;;;;5.60;3.50;;;14.80;99.90;;;14.10;100.00;101303.69;4190485;28;20087;-74
2023/09/26 05:05:28;;;;;;;5.25;3.05;;;14.70;99.90;;;14.10;100.00;101301.03;4185580;28;20036;-74
2023/09/26 05:07:30;;;;;;;5.55;2.92;;;14.70;99.90;;;14.07;100.00;101304.84;4198293;28;20456;-74
2023/09/26 05:09:31;;;;;;;4.47;2.88;;;14.70;99.90;;;14.04;100.00;101305.19;4198817;28;20111;-74
2023/09/26 05:11:31;;;;;;;4.95;2.70;;;14.70;99.90;;;14.05;100.00;101311.34;4185685;28;20025;-75
2023/09/26 05:13:32;;;;;;;5.43;2.95;;;14.60;99.90;;;14.00;100.00;101298.56;4185331;28;20025;-74
2023/09/26 05:15:35;;;;;;;7.38;3.58;;;14.60;99.90;;;14.01;100.00;101307.38;4196911;28;20024;-74
2023/09/26 05:17:36;;;;;;;5.50;2.50;;;14.60;99.90;;;13.98;100.00;101310.34;4186124;28;20116;-74
2023/09/26 05:19:37;;;;;;;6.32;2.75;;;14.60;99.90;;;13.95;100.00;101300.88;4189941;28;20043;-74
2023/09/26 05:21:38;;;;;;;5.15;3.47;;;14.60;99.90;;;13.96;100.00;101305.19;4185568;28;20029;-74
2023/09/26 05:23:39;;;;;;;6.63;2.92;;;14.60;99.90;;;13.95;100.00;101305.38;4185319;28;20033;-74
2023/09/26 05:25:40;;;;;;;4.63;2.58;;;14.60;99.90;;;13.93;100.00;101310.81;4195339;28;20059;-74
2023/09/26 05:27:42;;;;;;;9.27;3.42;;;14.60;99.90;;;13.91;100.00;101294.25;4189474;28;20038;-74
2023/09/26 05:29:42;;;;;;;5.40;3.08;;;14.60;99.90;;;13.93;100.00;101294.06;4183962;28;20100;-74
2023/09/26 05:31:43;;;;;;;6.75;2.83;;;14.60;99.90;;;13.94;100.00;101301.88;4197132;28;20035;-74
2023/09/26 05:33:44;;;;;;;5.50;2.63;;;14.60;99.90;;;13.94;100.00;101309.84;4201751;28;20017;-74
2023/09/26 05:35:45;;;;;;;5.82;3.15;;;14.50;99.90;;;13.93;100.00;101310.00;4195251;28;20036;-74
2023/09/26 05:37:46;;;;;;;6.97;2.50;;;14.60;99.90;;;13.95;100.00;101310.69;4183985;28;20033;-74
2023/09/26 05:39:47;;;;;;;4.82;2.70;;;14.60;99.90;;;13.93;100.00;101310.81;4196569;28;20511;-74
2023/09/26 05:41:48;;;;;;;8.52;3.17;;;14.60;99.90;;;13.90;100.00;101318.28;4199921;28;20042;-74
2023/09/26 05:43:49;;;;;;;4.70;3.50;;;14.60;99.90;;;13.86;100.00;101317.75;4188781;28;20032;-74
2023/09/26 05:45:51;;;;;;;4.13;2.45;;;14.60;99.90;;;13.82;100.00;101319.09;4193266;28;20059;-74
2023/09/26 05:47:52;;;;;;;6.93;2.88;;;14.50;99.90;;;13.79;100.00;101335.34;4195596;28;20084;-74
2023/09/26 05:49:53;;;;;;;7.57;3.88;;;14.50;99.90;;;13.77;100.00;101339.94;4185061;28;20021;-74
2023/09/26 05:51:54;;;;;;;10.77;3.65;;;14.40;99.90;;;13.75;100.00;101339.28;4185147;28;20029;-74
2023/09/26 05:53:54;;;;;;;7.90;3.20;;;14.40;99.90;;;13.74;100.00;101334.97;4185116;28;20033;-74
2023/09/26 05:55:56;;;;;;;10.57;3.38;;;14.40;99.90;;;13.73;100.00;101343.94;4187495;28;20029;-74
2023/09/26 05:57:56;;;;;;;4.45;2.85;;;14.40;99.90;;;13.73;100.00;101346.59;4198550;28;20036;-74
2023/09/26 05:59:57;;;;;;;7.20;3.40;;;14.30;99.90;;;13.72;100.00;101353.72;4183679;28;20423;-74
2023/09/26 06:01:58;;;;;;;6.85;3.00;;;14.30;99.90;;;13.70;100.00;101344.25;4193056;28;20025;-74
2023/09/26 06:03:59;;;;;;;4.30;2.65;;;14.30;99.90;;;13.69;100.00;101348.72;4201585;28;20036;-74
2023/09/26 06:06:03;;;;;;;5.40;2.90;;;14.30;99.90;;;13.70;100.00;101355.69;4200228;28;20054;-74
2023/09/26 06:08:05;;;;;;;5.78;3.20;;;14.30;99.90;;;13.69;100.00;101361.16;4188046;28;20028;-74
2023/09/26 06:10:06;;;;;;;6.32;3.03;;;14.30;99.90;;;13.67;100.00;101361.31;4203430;28;20058;-74
2023/09/26 06:12:07;;;;;;;8.55;3.85;;;14.30;99.90;;;13.69;100.00;101366.44;4204884;28;20021;-74
2023/09/26 06:14:08;;;;;;;5.72;3.17;;;14.30;99.90;;;13.69;100.00;101364.63;4204513;28;20028;-74
2023/09/26 06:16:09;;;;;;;7.43;3.42;;;14.30;99.90;;;13.71;100.00;101367.94;4200056;28;20029;-74
2023/09/26 06:18:10;;;;;;;7.43;4.25;;;14.30;99.90;;;13.76;100.00;101367.47;4188207;28;20493;-74
2023/09/26 06:20:11;;;;;;;8.77;4.30;;;14.40;99.90;;;13.79;100.00;101364.50;4188135;28;20044;-74
2023/09/26 06:22:13;;;;;;;7.25;4.25;;;14.40;99.90;;;13.83;100.00;101360.50;4188106;28;20488;-74
2023/09/26 06:24:14;;;;;;;6.63;3.47;;;14.40;99.90;;;13.90;100.00;101366.84;4191304;28;20024;-74
2023/09/26 06:26:15;;;;;;;6.10;3.22;;;14.40;99.90;;;13.92;100.00;101362.19;4196485;28;20512;-74
2023/09/26 06:28:16;;;;;;;9.27;3.38;;;14.50;99.90;;;14.02;100.00;101364.72;4187677;28;20040;-74
2023/09/26 06:30:17;;;;;;;5.65;3.58;;;14.60;99.90;;;14.09;100.00;101361.25;4187936;28;20013;-74
2023/09/26 06:32:18;;;;;;;4.82;3.38;;;14.60;99.90;;;14.11;100.00;101353.13;4188116;28;20036;-74
2023/09/26 06:34:19;;;;;;;6.10;2.85;;;14.70;99.90;;;14.08;100.00;101351.63;4188189;28;20059;-74
2023/09/26 06:36:21;;;;;;;5.07;3.05;;;14.70;99.90;;;14.00;100.00;101351.63;4191328;28;20021;-74
2023/09/26 06:38:22;;;;;;;6.45;3.40;;;14.70;99.90;;;14.00;100.00;101359.59;4201379;28;20107;-74
2023/09/26 06:40:23;;;;;;;4.93;2.70;;;14.60;99.90;;;13.95;100.00;101353.13;4204580;28;20092;-74
2023/09/26 06:42:24;;;;;;;5.75;2.78;;;14.60;99.90;;;13.85;100.00;101355.91;4203072;28;20020;-74
2023/09/26 06:44:24;;;;;;;5.97;2.72;;;14.50;99.90;;;13.84;100.00;101364.84;4219788;28;20028;-74
2023/09/26 06:46:25;;;;;;;5.70;3.00;;;14.50;99.90;;;13.80;100.00;101366.16;4191173;28;20033;-74
2023/09/26 06:48:27;;;;;;;4.03;2.65;;;14.40;99.90;;;13.77;100.00;101362.00;4204105;28;20049;-74
2023/09/26 06:50:28;;;;;;;4.45;2.90;;;14.40;99.90;;;13.77;100.00;101358.50;4202970;28;20024;-74
2023/09/26 06:52:31;;;;;;;6.53;3.00;;;14.40;99.90;;;13.74;100.00;101350.88;4203390;28;20066;-74
2023/09/26 06:54:31;;;;;;;6.65;3.08;;;14.40;99.90;;;13.77;100.00;101358.50;4191494;28;20104;-74
2023/09/26 06:56:32;;;;;;;4.60;2.45;;;14.40;99.90;;;13.77;100.00;101356.69;4203170;28;20021;-74
2023/09/26 06:58:35;;;;;;;3.63;2.42;;;14.40;99.90;;;13.79;100.00;101369.81;4194748;28;20025;-74
2023/09/26 07:00:37;;;;;;;5.78;3.00;;;14.40;99.90;;;13.79;100.00;101378.59;4195996;28;20123;-74
2023/09/26 07:02:42;;;;;;;14.00;4.30;;;14.40;99.90;;;13.81;100.00;101378.44;4201011;28;20028;-74
2023/09/26 07:04:44;;;;;;;8.93;4.13;;;14.50;99.90;;;13.90;100.00;101382.75;4189158;28;20032;-75
2023/09/26 07:06:45;;;;;;;7.88;3.42;;;14.50;99.90;;;13.96;100.00;101376.81;4199747;28;20639;-75
2023/09/26 07:08:46;;;;;;;6.30;4.00;;;14.60;99.90;;;14.02;100.00;101385.94;4193123;28;20036;-74
2023/09/26 07:10:47;;;;;;;6.00;3.70;;;14.60;99.90;;;14.07;100.00;101395.06;4186690;28;20028;-74
2023/09/26 07:12:51;;;;;;;7.50;3.53;;;14.70;99.90;;;14.13;100.00;101394.41;4186911;28;20032;-74
2023/09/26 07:14:53;;;;;;;5.85;3.17;;;14.70;99.90;;;14.19;100.00;101387.63;4192423;28;20017;-74
2023/09/26 07:16:54;;;;;;;6.70;3.35;;;14.80;99.90;;;14.25;100.00;101390.44;4192670;28;20029;-73
2023/09/26 07:18:54;;;;;;;4.78;3.10;;;14.90;99.90;;;14.30;100.00;101385.50;4199836;28;20071;-74
2023/09/26 07:21:05;;;;;;;6.45;3.22;;;15.00;99.90;;;14.37;100.00;101381.22;4197962;28;20037;-74
2023/09/26 07:23:06;;;;;;;6.72;3.67;;;15.00;99.90;;;14.45;100.00;101392.84;4186176;28;20029;-74
2023/09/26 07:25:08;;;;;;;5.28;3.63;;;15.10;99.90;;;14.52;100.00;101393.81;4192944;28;20081;-74
2023/09/26 07:27:09;;;;;;;4.32;2.72;;;15.20;99.90;;;14.62;100.00;101394.50;4187358;28;20150;-73
2023/09/26 07:29:10;;;;;;;4.78;3.08;;;15.20;99.90;;;14.69;100.00;101391.03;4186959;28;20029;-73
2023/09/26 07:31:13;;;;;;;5.50;3.17;;;15.30;99.90;;;14.73;100.00;101389.66;4187230;28;20017;-74
2023/09/26 07:33:14;;;;;;;5.63;3.30;;;15.30;99.90;;;14.77;100.00;101398.97;4197575;28;20036;-74
2023/09/26 07:35:15;;;;;;;5.57;3.50;;;15.40;99.90;;;14.84;100.00;101399.13;4191896;28;20020;-74
2023/09/26 07:37:16;;;;;;;6.00;3.30;;;15.50;99.90;;;14.90;100.00;101398.47;4190712;28;20107;-74
2023/09/26 07:39:17;;;;;;;6.72;3.17;;;15.60;99.90;;;14.95;100.00;101401.44;4185646;28;20049;-74
2023/09/26 07:41:18;;;;;;;6.57;2.85;;;15.60;99.90;;;15.06;100.00;101408.22;4180482;28;20029;-74
2023/09/26 07:43:19;;;;;;;6.93;4.35;;;15.70;99.90;;;15.12;100.00;101397.75;4186920;28;20064;-74
2023/09/26 07:45:20;;;;;;;6.13;3.67;;;15.80;99.90;;;15.23;100.00;101408.00;4192857;28;20459;-74
2023/09/26 07:47:21;;;;;;;6.85;3.85;;;15.90;99.90;;;15.31;100.00;101408.00;4202114;28;20017;-74
2023/09/26 07:49:21;;;;;;;7.20;4.15;;;15.90;99.90;;;15.41;100.00;101408.63;4202222;28;20519;-75
2023/09/26 07:51:22;;;;;;;8.52;4.55;;;16.00;99.90;;;15.54;100.00;101412.63;4188514;28;20029;-74
2023/09/26 07:53:24;;;;;;;8.13;5.20;;;16.20;99.90;;;15.63;100.00;101409.75;4185580;28;20025;-74
2023/09/26 07:55:25;;;;;;;7.90;3.83;;;16.30;99.90;;;15.73;100.00;101414.88;4186464;28;20056;-74
2023/09/26 07:57:25;;;;;;;7.10;4.80;;;16.40;99.90;;;15.88;100.00;101411.31;4186668;28;20565;-75
2023/09/26 07:59:26;;;;;;;7.03;4.45;;;16.50;99.90;;;16.04;100.00;101413.88;4199654;28;20025;-74
2023/09/26 08:01:27;;;;;;;7.72;4.30;;;16.70;99.90;;;16.20;100.00;101412.13;4185509;28;20028;-74
2023/09/26 08:03:28;;;;;;;6.25;4.18;;;16.90;99.90;;;16.35;100.00;101413.84;4195530;28;20032;-75
2023/09/26 08:05:29;;;;;;;9.45;4.30;;;17.10;99.90;;;16.53;100.00;101424.22;4186486;28;20455;-74
2023/09/26 08:07:30;;;;;;;6.57;3.95;;;17.20;99.90;;;16.69;100.00;101431.28;4186392;28;20032;-74
2023/09/26 08:09:31;;;;;;;8.90;4.40;;;17.40;99.90;;;16.85;100.00;101423.97;4186514;28;20443;-74
2023/09/26 08:11:32;;;;;;;8.95;3.85;;;17.60;99.90;;;17.06;100.00;101424.09;4186660;28;20124;-74
2023/09/26 08:13:34;;;;;;;9.15;3.78;;;17.80;99.90;;;17.24;100.00;101426.41;4186293;28;20025;-74
2023/09/26 08:15:35;;;;;;;7.25;4.40;;;17.90;99.90;;;17.34;100.00;101415.50;4188577;28;20028;-74
2023/09/26 08:17:36;;;;;;;6.20;3.72;;;18.00;99.90;;;17.41;100.00;101421.75;4186396;28;20037;-74
2023/09/26 08:19:36;;;;;;;6.95;3.30;;;18.10;99.90;;;17.41;100.00;101422.56;4186393;28;20400;-74